Time;durP1;ratioP1;P1;durP2;ratioP2;P2;SDS_P1;SDS_P2;PMS_P1;PMS_P2;Temp;Humidity;BMP_temperature;BMP_pressure;BME280_temperature;BME280_humidity;BME280_pressure;Samples;Min_cycle;Max_cycle;Signal;HPM_P1;HPM_P2
2022/12/12 00:01:42;;;;;;;38.72;20.25;;;;;;;-1.02;100.00;101152.75;5092894;28;20107;-76
2022/12/12 00:04:08;;;;;;;33.88;18.17;;;;;;;-1.02;100.00;101153.59;5093525;28;20110;-76
2022/12/12 00:06:33;;;;;;;36.13;19.50;;;;;;;-1.02;100.00;101153.59;5093106;28;20431;-76
2022/12/12 00:08:59;;;;;;;38.58;19.77;;;;;;;-1.01;100.00;101151.84;5074629;28;20043;-77
2022/12/12 00:11:25;;;;;;;40.22;20.40;;;;;;;-1.01;100.00;101157.06;5092796;28;20024;-76
2022/12/12 00:13:53;;;;;;;38.90;18.65;;;;;;;-1.04;100.00;101147.56;5092495;28;20059;-85
2022/12/12 00:16:18;;;;;;;36.88;19.67;;;;;;;-1.05;100.00;101145.88;5092842;28;20107;-76
2022/12/12 00:18:44;;;;;;;40.53;19.55;;;;;;;-1.10;100.00;101148.66;5092852;28;20028;-76
2022/12/12 00:21:21;;;;;;;37.17;20.13;;;;;;;-1.14;100.00;101156.66;5092409;28;20042;-76
2022/12/12 00:23:47;;;;;;;37.55;19.20;;;;;;;-1.20;100.00;101157.72;5093193;28;20027;-76
2022/12/12 00:26:20;;;;;;;38.45;20.27;;;;;;;-1.29;100.00;101161.50;5092680;28;20025;-76
2022/12/12 00:28:46;;;;;;;40.00;20.00;;;;;;;-1.35;100.00;101159.13;5092399;28;20031;-76
2022/12/12 00:31:11;;;;;;;39.97;20.73;;;;;;;-1.41;100.00;101156.75;5092241;28;20418;-76
2022/12/12 00:33:38;;;;;;;36.85;19.63;;;;;;;-1.45;100.00;101160.34;5093602;28;20089;-76
2022/12/12 00:36:04;;;;;;;38.58;19.75;;;;;;;-1.49;100.00;101171.84;5096133;28;20089;-76
2022/12/12 00:38:30;;;;;;;38.53;20.42;;;;;;;-1.56;100.00;101159.91;5096627;28;20032;-76
2022/12/12 00:40:57;;;;;;;34.83;18.88;;;;;;;-1.64;100.00;101161.00;5096069;28;20517;-78
2022/12/12 00:43:23;;;;;;;35.78;19.60;;;;;;;-1.74;100.00;101156.16;5077832;28;20020;-76
2022/12/12 00:45:49;;;;;;;39.80;19.98;;;;;;;-1.88;100.00;101162.72;5096729;28;20031;-76
2022/12/12 00:48:14;;;;;;;35.60;18.98;;;;;;;-2.03;100.00;101160.59;5078625;28;20020;-76
2022/12/12 00:50:40;;;;;;;40.67;19.70;;;;;;;-2.17;100.00;101161.03;5095955;28;20408;-77
2022/12/12 00:53:05;;;;;;;31.85;16.98;;;;;;;-2.33;100.00;101158.94;5095830;28;20106;-76
2022/12/12 00:55:30;;;;;;;35.10;18.48;;;;;;;-2.43;100.00;101161.84;5096027;28;20048;-76
2022/12/12 00:57:56;;;;;;;34.63;19.30;;;;;;;-2.54;100.00;101165.69;5096311;28;20333;-76
2022/12/12 01:00:21;;;;;;;36.22;18.13;;;;;;;-2.59;100.00;101159.75;5095341;28;20032;-75
2022/12/12 01:02:47;;;;;;;43.33;21.00;;;;;;;-2.59;100.00;101166.72;5095675;28;20453;-75
2022/12/12 01:05:15;;;;;;;48.42;20.00;;;;;;;-2.52;100.00;101165.63;5095971;28;20443;-75
2022/12/12 01:07:40;;;;;;;42.47;21.08;;;;;;;-2.46;100.00;101162.84;5095628;28;20054;-75
2022/12/12 01:10:06;;;;;;;42.83;19.60;;;;;;;-2.37;100.00;101169.50;5095469;28;20391;-75
2022/12/12 01:12:32;;;;;;;49.45;20.17;;;;;;;-2.31;100.00;101170.16;5095065;28;20528;-75
2022/12/12 01:14:57;;;;;;;39.55;19.50;;;;;;;-2.24;100.00;101168.22;5095808;28;20103;-75
2022/12/12 01:17:23;;;;;;;40.92;20.20;;;;;;;-2.18;100.00;101173.25;5095531;28;20024;-75
2022/12/12 01:19:49;;;;;;;44.30;20.48;;;;;;;-2.12;100.00;101174.78;5095844;28;20111;-75
2022/12/12 01:22:14;;;;;;;40.67;19.60;;;;;;;-2.08;100.00;101179.00;5095235;28;20059;-75
2022/12/12 01:24:39;;;;;;;38.78;20.02;;;;;;;-2.02;100.00;101178.78;5095225;28;20042;-75
2022/12/12 01:27:05;;;;;;;39.88;19.50;;;;;;;-2.00;100.00;101177.00;5095467;28;20416;-76
2022/12/12 01:29:32;;;;;;;38.03;20.38;;;;;;;-1.97;100.00;101186.47;5095045;28;20553;-75
2022/12/12 01:31:58;;;;;;;40.25;20.08;;;;;;;-1.96;100.00;101177.75;5094917;28;20028;-75
2022/12/12 01:34:23;;;;;;;38.88;19.63;;;;;;;-1.96;100.00;101182.97;5094974;28;20106;-75
2022/12/12 01:36:48;;;;;;;40.30;19.88;;;;;;;-1.98;100.00;101182.16;5095036;28;20024;-76
2022/12/12 01:39:14;;;;;;;35.13;19.77;;;;;;;-1.97;100.00;101187.34;5094675;28;20042;-76
2022/12/12 01:41:41;;;;;;;40.95;19.27;;;;;;;-2.00;100.00;101190.03;5095351;28;20062;-75
2022/12/12 01:44:44;;;;;;;38.78;18.83;;;;;;;-2.05;100.00;101194.53;5094646;28;20028;-76
2022/12/12 01:47:15;;;;;;;36.13;17.48;;;;;;;-2.14;100.00;101200.91;5094703;28;20111;-76
2022/12/12 01:49:44;;;;;;;40.20;17.87;;;;;;;-2.29;100.00;101201.38;5095800;28;20107;-76
2022/12/12 01:52:16;;;;;;;35.13;17.90;;;;;;;-2.44;100.00;101196.66;5094644;28;20439;-75
2022/12/12 01:54:43;;;;;;;;;;;;;;;-2.60;100.00;101199.72;5076903;28;20036;-75
2022/12/12 01:57:15;;;;;;;33.22;16.00;;;;;;;-2.74;100.00;101207.09;5094741;28;19908;-76
2022/12/12 01:59:41;;;;;;;33.60;16.95;;;;;;;-2.88;100.00;101197.06;5095500;28;20031;-75
2022/12/12 02:02:08;;;;;;;36.05;18.70;;;;;;;-2.99;100.00;101196.53;5094840;28;20016;-76
2022/12/12 02:04:34;;;;;;;42.47;18.63;;;;;;;-3.11;100.00;101203.78;5094357;28;20032;-75
2022/12/12 02:07:00;;;;;;;35.80;16.85;;;;;;;-3.19;100.00;101200.56;5094411;28;20103;-74
2022/12/12 02:09:26;;;;;;;43.45;20.15;;;;;;;-3.28;100.00;101212.06;5094712;28;20467;-76
2022/12/12 02:11:54;;;;;;;33.85;17.02;;;;;;;-3.36;100.00;101211.41;5094560;28;20436;-76
2022/12/12 02:14:24;;;;;;;35.10;18.08;;;;;;;-3.44;100.00;101214.22;5094692;28;20065;-75
2022/12/12 02:17:12;;;;;;;35.70;18.67;;;;;;;-3.53;100.00;101216.22;5076283;28;20115;-75
2022/12/12 02:19:41;;;;;;;41.33;18.45;;;;;;;-3.60;100.00;101220.69;5094148;28;20464;-75
2022/12/12 02:22:27;;;;;;;40.38;18.30;;;;;;;-3.66;100.00;101223.47;5094139;28;20476;-75
2022/12/12 02:25:11;;;;;;;38.55;18.00;;;;;;;-3.69;100.00;101223.53;5094166;28;20470;-74
2022/12/12 02:28:18;;;;;;;41.50;19.48;;;;;;;-3.74;100.00;101229.72;5094272;28;20077;-75
2022/12/12 02:31:11;;;;;;;33.08;17.05;;;;;;;-3.84;100.00;101220.41;5054918;28;20123;-74
2022/12/12 02:34:00;;;;;;;35.40;16.67;;;;;;;-3.90;100.00;101230.97;5093907;28;20088;-76
2022/12/12 02:36:50;;;;;;;40.30;18.13;;;;;;;-3.98;100.00;101225.97;5094128;28;20523;-75
2022/12/12 02:39:38;;;;;;;31.27;16.98;;;;;;;-4.04;100.00;101228.72;5093984;28;20452;-74
2022/12/12 02:42:10;;;;;;;37.55;17.02;;;;;;;-4.08;100.00;101232.25;5094061;28;20027;-74
2022/12/12 02:44:49;;;;;;;37.00;17.45;;;;;;;-4.11;100.00;101229.75;5093688;28;20024;-75
2022/12/12 02:47:18;;;;;;;37.42;18.48;;;;;;;-4.15;100.00;101225.50;5093920;28;20031;-75
2022/12/12 02:49:50;;;;;;;37.83;17.27;;;;;;;-4.18;100.00;101225.56;5093580;28;20028;-75
2022/12/12 02:52:16;;;;;;;35.28;17.23;;;;;;;-4.21;100.00;101221.31;5075544;28;20042;-74
2022/12/12 02:54:42;;;;;;;39.50;17.02;;;;;;;-4.25;100.00;101220.50;5093738;28;20043;-75
2022/12/12 02:57:17;;;;;;;38.70;18.83;;;;;;;-4.28;100.00;101222.34;5075348;28;20160;-75
2022/12/12 02:59:47;;;;;;;53.70;20.42;;;;;;;-4.32;100.00;101216.34;5093491;28;20404;-74
2022/12/12 03:02:50;;;;;;;36.80;18.60;;;;;;;-4.37;100.00;101218.19;5093397;28;20035;-77
2022/12/12 03:08:47;;;;;;;33.80;16.83;;;;;;;-4.41;100.00;101221.75;5093466;28;20043;-74
2022/12/12 03:11:48;;;;;;;38.33;17.70;;;;;;;-4.50;100.00;101220.22;5093663;28;20031;-74
2022/12/12 03:14:29;;;;;;;34.97;16.70;;;;;;;-4.57;100.00;101226.41;5091664;28;20047;-85
2022/12/12 03:17:05;;;;;;;36.90;17.40;;;;;;;-4.63;100.00;101226.56;5093419;28;20028;-74
2022/12/12 03:19:55;;;;;;;37.88;16.55;;;;;;;-4.71;100.00;101229.31;5093918;28;20032;-74
2022/12/12 03:22:23;;;;;;;33.65;15.70;;;;;;;-4.75;100.00;101227.66;5092880;28;20028;-75
2022/12/12 03:25:00;;;;;;;32.50;16.65;;;;;;;-4.77;100.00;101226.84;5093154;28;20055;-74
2022/12/12 03:27:38;;;;;;;43.05;18.20;;;;;;;-4.81;100.00;101231.25;5093355;28;20046;-76
2022/12/12 03:30:10;;;;;;;36.78;16.85;;;;;;;-4.85;100.00;101226.13;5092907;28;20024;-74
2022/12/12 03:32:45;;;;;;;40.92;18.38;;;;;;;-4.89;100.00;101237.50;5094050;28;20116;-74
2022/12/12 03:35:23;;;;;;;39.90;17.70;;;;;;;-4.91;100.00;101237.53;5092949;28;20471;-74
2022/12/12 03:37:55;;;;;;;43.05;17.98;;;;;;;-4.91;100.00;101239.25;5093562;28;20341;-74
2022/12/12 03:40:36;;;;;;;39.15;19.13;;;;;;;-4.95;100.00;101233.28;5092841;28;20039;-74
2022/12/12 03:43:09;;;;;;;44.13;18.10;;;;;;;-4.98;100.00;101228.16;5093470;28;20016;-74
2022/12/12 03:45:43;;;;;;;34.72;17.08;;;;;;;-5.00;100.00;101229.91;5093509;28;20146;-73
2022/12/12 03:48:16;;;;;;;37.78;17.70;;;;;;;-5.08;100.00;101219.66;5092991;28;20476;-74
2022/12/12 03:50:47;;;;;;;39.58;18.55;;;;;;;-5.13;100.00;101213.72;5092951;28;20020;-76
2022/12/12 03:53:21;;;;;;;39.30;17.50;;;;;;;-5.19;100.00;101232.84;5092775;28;20024;-75
2022/12/12 03:55:59;;;;;;;36.30;18.33;;;;;;;-5.20;100.00;101225.09;5092764;28;20258;-75
2022/12/12 03:58:31;;;;;;;34.50;16.90;;;;;;;-5.19;100.00;101239.78;5074675;28;20084;-75
2022/12/12 04:00:57;;;;;;;;;;;;;;;-5.21;100.00;101233.75;5093259;28;20031;-74
2022/12/12 04:03:28;;;;;;;37.53;17.48;;;;;;;-5.22;100.00;101230.31;5092509;28;19915;-74
2022/12/12 04:06:26;;;;;;;33.35;16.88;;;;;;;-5.24;100.00;101232.09;5092758;28;20036;-76
2022/12/12 04:15:02;;;;;;;38.45;18.02;;;;;;;-5.33;100.00;101240.91;5096540;28;20380;-76
2022/12/12 04:17:53;;;;;;;35.33;17.45;;;;;;;-5.34;100.00;101236.59;5096343;28;20016;-76
2022/12/12 04:23:46;;;;;;;32.50;17.27;;;;;;;-5.45;100.00;101238.50;5096791;28;20506;-74
2022/12/12 04:29:06;;;;;;;33.20;16.20;;;;;;;-5.53;100.00;101243.00;5096821;28;20078;-74
2022/12/12 04:31:36;;;;;;;34.55;17.23;;;;;;;-5.58;100.00;101235.28;5096647;28;20020;-74
2022/12/12 04:34:11;;;;;;;34.88;17.67;;;;;;;-5.60;100.00;101238.78;5097167;28;20340;-74
2022/12/12 04:36:37;;;;;;;32.15;16.65;;;;;;;-5.62;100.00;101238.81;5096208;28;20024;-75
2022/12/12 04:39:05;;;;;;;34.97;17.23;;;;;;;-5.64;100.00;101239.72;5095953;28;20032;-74
2022/12/12 04:41:34;;;;;;;30.00;16.27;;;;;;;-5.64;100.00;101239.72;5095642;28;20024;-74
2022/12/12 04:44:01;;;;;;;37.95;17.83;;;;;;;-5.64;100.00;101244.91;5096097;28;20072;-75
2022/12/12 04:46:30;;;;;;;32.17;15.95;;;;;;;-5.68;100.00;101241.50;5095926;28;20028;-75
2022/12/12 04:49:13;;;;;;;38.00;15.50;;;;;;;-5.69;100.00;101252.75;5095945;28;20364;-75
2022/12/12 04:51:43;;;;;;;32.92;16.38;;;;;;;-5.73;100.00;101249.38;5095615;28;20316;-74
2022/12/12 04:54:31;;;;;;;29.27;14.73;;;;;;;-5.71;100.00;101250.19;5077564;28;20075;-74
2022/12/12 04:57:01;;;;;;;34.45;15.93;;;;;;;-5.71;100.00;101249.34;5095467;28;20464;-74
2022/12/12 04:59:28;;;;;;;31.38;15.35;;;;;;;-5.74;100.00;101245.06;5095723;28;20038;-74
2022/12/12 05:02:20;;;;;;;30.30;15.73;;;;;;;-5.79;100.00;101246.00;5095660;28;20057;-74
2022/12/12 05:05:10;;;;;;;33.70;16.58;;;;;;;-5.87;100.00;101247.00;5095787;28;20024;-74
2022/12/12 05:07:42;;;;;;;33.72;16.17;;;;;;;-5.90;100.00;101246.19;5095582;28;20069;-75
2022/12/12 05:10:13;;;;;;;30.63;14.90;;;;;;;-5.91;100.00;101250.53;5095563;28;20034;-74
2022/12/12 05:12:42;;;;;;;37.75;16.95;;;;;;;-5.91;100.00;101247.94;5095491;28;20065;-75
2022/12/12 05:15:08;;;;;;;30.17;15.85;;;;;;;-5.94;100.00;101242.81;5095323;28;20051;-75
2022/12/12 05:17:51;;;;;;;29.65;15.77;;;;;;;-5.95;100.00;101237.63;5095244;28;20360;-74
2022/12/12 05:20:16;;;;;;;33.40;15.25;;;;;;;-5.93;100.00;101247.06;5095092;28;20028;-74
2022/12/12 05:22:42;;;;;;;29.15;15.15;;;;;;;-5.95;100.00;101246.25;5095536;28;20035;-74
2022/12/12 05:25:07;;;;;;;37.85;15.57;;;;;;;-5.96;100.00;101254.91;5095321;28;20043;-74
2022/12/12 05:27:33;;;;;;;32.58;16.20;;;;;;;-6.00;100.00;101249.81;5095634;28;20028;-75
2022/12/12 05:29:59;;;;;;;33.47;17.10;;;;;;;-6.04;100.00;101257.66;5095188;28;20046;-75
2022/12/12 05:32:24;;;;;;;36.58;16.95;;;;;;;-6.07;100.00;101259.44;5095046;28;20020;-74
2022/12/12 05:34:50;;;;;;;30.40;16.85;;;;;;;-6.12;100.00;101267.28;5094941;28;20043;-74
2022/12/12 05:37:15;;;;;;;36.35;16.75;;;;;;;-6.15;100.00;101264.75;5094972;28;20024;-75
2022/12/12 05:39:40;;;;;;;38.38;17.85;;;;;;;-6.18;100.00;101267.34;5094881;28;20090;-75
2022/12/12 05:42:06;;;;;;;29.23;15.43;;;;;;;-6.22;100.00;101266.56;5095147;28;20028;-74
2022/12/12 05:44:31;;;;;;;34.08;16.85;;;;;;;-6.24;100.00;101262.25;5095057;28;20024;-74
2022/12/12 05:46:56;;;;;;;34.72;16.42;;;;;;;-6.23;100.00;101269.16;5095059;28;20051;-73
2022/12/12 05:49:22;;;;;;;36.75;16.38;;;;;;;-6.22;100.00;101278.66;5095169;28;20031;-74
2022/12/12 05:51:47;;;;;;;34.08;16.50;;;;;;;-6.21;100.00;101276.03;5094656;28;20030;-74
2022/12/12 05:54:13;;;;;;;30.25;15.82;;;;;;;-6.23;100.00;101269.16;5094661;28;20055;-75
2022/12/12 05:56:38;;;;;;;32.67;16.23;;;;;;;-6.23;100.00;101271.75;5076798;28;20078;-75
2022/12/12 05:59:04;;;;;;;32.65;16.23;;;;;;;-6.22;100.00;101269.13;5094929;28;20028;-76
2022/12/12 06:01:30;;;;;;;32.95;15.57;;;;;;;-6.22;100.00;101269.13;5094597;28;20429;-75
2022/12/12 06:03:55;;;;;;;31.48;15.68;;;;;;;-6.26;100.00;101267.47;5094385;28;20032;-76
2022/12/12 06:06:21;;;;;;;29.70;14.98;;;;;;;-6.28;100.00;101270.97;5094763;28;20047;-75
2022/12/12 06:08:46;;;;;;;32.05;16.33;;;;;;;-6.30;100.00;101277.88;5076902;28;20028;-75
2022/12/12 06:11:11;;;;;;;29.88;15.02;;;;;;;-6.34;100.00;101277.09;5094652;28;20032;-75
2022/12/12 06:13:37;;;;;;;32.15;16.35;;;;;;;-6.33;100.00;101286.53;5094229;28;20028;-84
2022/12/12 06:16:08;;;;;;;26.05;14.27;;;;;;;-6.38;100.00;101278.84;5094249;28;20067;-74
2022/12/12 06:18:34;;;;;;;26.75;15.15;;;;;;;-6.39;100.00;101289.22;5094230;28;20070;-75
2022/12/12 06:21:08;;;;;;;30.02;15.55;;;;;;;-6.42;100.00;101284.97;5093906;28;20027;-75
2022/12/12 06:23:40;;;;;;;30.77;15.48;;;;;;;-6.42;100.00;101297.91;5094631;28;20459;-75
2022/12/12 06:26:07;;;;;;;29.60;15.13;;;;;;;-6.44;100.00;101288.44;5093835;28;20469;-75
2022/12/12 06:28:33;;;;;;;26.75;15.13;;;;;;;-6.46;100.00;101304.00;5094025;28;20428;-74
2022/12/12 06:30:58;;;;;;;28.65;14.48;;;;;;;-6.48;100.00;101292.78;5093574;28;20035;-74
2022/12/12 06:33:24;;;;;;;32.38;15.63;;;;;;;-6.45;100.00;101300.53;5075914;28;20056;-74
2022/12/12 06:36:23;;;;;;;33.67;15.05;;;;;;;-6.47;100.00;101304.88;5093841;28;20391;-75
2022/12/12 06:38:54;;;;;;;30.90;15.10;;;;;;;-6.48;100.00;101304.88;5074273;28;20063;-76
2022/12/12 06:41:20;;;;;;;29.75;14.27;;;;;;;-6.52;100.00;101298.03;5093848;28;20028;-74
2022/12/12 06:43:46;;;;;;;27.35;13.95;;;;;;;-6.52;100.00;101304.06;5093729;28;20043;-75
2022/12/12 06:46:16;;;;;;;32.20;16.20;;;;;;;-6.55;100.00;101304.13;5094252;28;20024;-75
2022/12/12 06:48:42;;;;;;;27.90;15.13;;;;;;;-6.57;100.00;101305.84;5093891;28;20103;-84
2022/12/12 06:51:10;;;;;;;26.15;14.07;;;;;;;-6.57;100.00;101306.72;5093497;28;20082;-74
2022/12/12 06:53:36;;;;;;;25.13;14.38;;;;;;;-6.61;100.00;101305.03;5093287;28;20024;-75
2022/12/12 06:56:11;;;;;;;29.05;14.82;;;;;;;-6.61;100.00;101301.59;5093824;28;20425;-75
2022/12/12 06:58:37;;;;;;;29.60;16.15;;;;;;;-6.65;100.00;101300.78;5094216;28;20094;-74
2022/12/12 07:01:03;;;;;;;28.10;15.07;;;;;;;-6.66;100.00;101305.97;5093493;28;20075;-75
2022/12/12 07:03:28;;;;;;;31.17;15.93;;;;;;;-6.65;100.00;101299.91;5093411;28;20027;-75
2022/12/12 07:05:54;;;;;;;29.92;15.30;;;;;;;-6.68;100.00;101298.22;5093379;28;20032;-75
2022/12/12 07:08:19;;;;;;;32.60;14.82;;;;;;;-6.69;100.00;101298.25;5093355;28;20020;-75
2022/12/12 07:10:45;;;;;;;30.33;16.10;;;;;;;-6.57;100.00;101306.72;5093336;28;20130;-83
2022/12/12 07:13:10;;;;;;;30.25;15.07;;;;;;;-6.45;100.00;101310.03;5093440;28;20036;-75
2022/12/12 07:15:49;;;;;;;32.38;15.30;;;;;;;-6.44;100.00;101307.41;5093873;28;20054;-75
2022/12/12 07:18:16;;;;;;;29.35;14.77;;;;;;;-6.40;100.00;101318.59;5093167;28;20115;-74
2022/12/12 07:20:44;;;;;;;31.13;13.30;;;;;;;-6.41;100.00;101317.72;5093218;28;20032;-75
2022/12/12 07:23:11;;;;;;;28.58;15.30;;;;;;;-6.41;100.00;101319.47;5093012;28;20463;-75
2022/12/12 07:25:37;;;;;;;33.80;15.07;;;;;;;-6.46;100.00;101313.50;5093313;28;20030;-75
2022/12/12 07:28:04;;;;;;;27.02;13.60;;;;;;;-6.54;100.00;101315.31;5093446;28;20024;-75
2022/12/12 07:30:29;;;;;;;26.38;13.80;;;;;;;-6.58;100.00;101322.28;5093001;28;20107;-75
2022/12/12 07:32:54;;;;;;;24.33;13.23;;;;;;;-6.65;100.00;101313.72;5093203;28;20066;-75
2022/12/12 07:35:20;;;;;;;28.65;13.80;;;;;;;-6.70;100.00;101318.09;5093133;28;20456;-75
2022/12/12 07:37:46;;;;;;;26.52;13.68;;;;;;;-6.73;100.00;101310.38;5093512;28;20380;-75
2022/12/12 07:40:11;;;;;;;21.42;11.98;;;;;;;-6.77;100.00;101325.06;5075090;28;20024;-76
2022/12/12 07:42:37;;;;;;;21.92;13.10;;;;;;;-6.79;100.00;101326.81;5076562;28;20358;-75
2022/12/12 07:45:03;;;;;;;27.80;12.77;;;;;;;-6.79;100.00;101328.53;5097147;28;20032;-75
2022/12/12 07:47:28;;;;;;;28.70;14.15;;;;;;;-6.80;100.00;101326.84;5096767;28;20046;-76
2022/12/12 07:49:54;;;;;;;24.23;13.48;;;;;;;-6.81;100.00;101328.53;5078566;28;20063;-75
2022/12/12 07:52:20;;;;;;;28.08;12.85;;;;;;;-6.79;100.00;101336.28;5096746;28;20453;-75
2022/12/12 07:54:46;;;;;;;25.48;14.55;;;;;;;-6.78;100.00;101338.00;5096763;28;20121;-77
2022/12/12 07:57:11;;;;;;;25.55;13.05;;;;;;;-6.75;100.00;101341.44;5097198;28;20036;-77
2022/12/12 07:59:37;;;;;;;25.55;12.57;;;;;;;-6.74;100.00;101348.31;5096927;28;20028;-81
2022/12/12 08:02:02;;;;;;;25.85;12.88;;;;;;;-6.71;100.00;101350.03;5100591;28;20031;-81
2022/12/12 08:04:28;;;;;;;28.80;13.88;;;;;;;-6.70;100.00;101354.34;5097513;28;20035;-79
2022/12/12 08:06:53;;;;;;;29.65;13.40;;;;;;;-6.70;100.00;101356.94;5096544;28;20034;-76
2022/12/12 08:09:19;;;;;;;25.95;13.68;;;;;;;-6.69;100.00;101366.38;5078036;28;20114;-77
2022/12/12 08:11:44;;;;;;;28.27;14.40;;;;;;;-6.67;100.00;101377.59;5096388;28;20046;-80
2022/12/12 08:14:10;;;;;;;27.77;13.40;;;;;;;-6.65;100.00;101372.41;5096445;28;20028;-81
2022/12/12 08:16:35;;;;;;;23.50;14.15;;;;;;;-6.61;100.00;101369.75;5078635;28;20032;-76
2022/12/12 08:19:01;;;;;;;30.75;14.32;;;;;;;-6.57;100.00;101375.75;5096263;28;20020;-78
2022/12/12 08:21:27;;;;;;;31.70;14.15;;;;;;;-6.54;100.00;101365.34;5096374;28;20480;-77
2022/12/12 08:24:01;;;;;;;30.75;15.38;;;;;;;-6.50;100.00;101371.38;5096506;28;20028;-79
2022/12/12 08:26:27;;;;;;;30.95;15.07;;;;;;;-6.44;100.00;101373.91;5096820;28;20031;-80
2022/12/12 08:28:54;;;;;;;34.65;16.23;;;;;;;-6.39;100.00;101366.91;5096095;28;20103;-77
2022/12/12 08:31:20;;;;;;;31.85;15.27;;;;;;;-6.34;100.00;101370.31;5096009;28;20024;-77
2022/12/12 08:33:47;;;;;;;32.50;15.85;;;;;;;-6.28;100.00;101367.66;5095633;28;20028;-77
2022/12/12 08:36:20;;;;;;;34.72;17.17;;;;;;;-6.20;100.00;101372.75;5095784;28;20031;-78
2022/12/12 08:38:45;;;;;;;35.95;17.05;;;;;;;-6.13;100.00;101374.38;5095499;28;20035;-79
2022/12/12 08:41:12;;;;;;;32.00;14.88;;;;;;;-6.06;100.00;101369.97;5095805;28;20032;-78
2022/12/12 08:43:38;;;;;;;40.53;20.13;;;;;;;-5.99;100.00;101361.22;5095548;28;20020;-78
2022/12/12 08:46:06;;;;;;;40.22;17.38;;;;;;;-5.88;100.00;101361.91;5096447;28;20020;-76
2022/12/12 08:48:32;;;;;;;31.35;16.23;;;;;;;-5.82;100.00;101365.28;5077493;28;20447;-81
2022/12/12 08:50:57;;;;;;;39.70;17.92;;;;;;;-5.76;100.00;101358.31;5095697;28;20032;-78
2022/12/12 08:53:23;;;;;;;37.22;18.27;;;;;;;-5.65;100.00;101371.09;5095326;28;20016;-78
2022/12/12 08:55:49;;;;;;;40.33;19.67;;;;;;;-5.56;100.00;101367.53;5094967;28;20047;-77
2022/12/12 08:58:15;;;;;;;48.78;20.20;;;;;;;-5.49;100.00;101367.41;5095607;28;20030;-80
2022/12/12 09:00:40;;;;;;;42.88;20.98;;;;;;;-5.42;100.00;101383.75;5095153;28;20081;-78
2022/12/12 09:03:06;;;;;;;47.28;21.23;;;;;;;-5.36;100.00;101374.97;5095716;28;20024;-79
2022/12/12 09:05:31;;;;;;;45.72;20.80;;;;;;;-5.25;100.00;101377.44;5095346;28;20060;-78
2022/12/12 09:07:58;;;;;;;51.25;21.80;;;;;;;-5.15;100.00;101369.44;5095363;28;20063;-79
2022/12/12 09:10:29;;;;;;;47.38;22.42;;;;;;;-5.05;100.00;101379.66;5095087;28;20407;-77
2022/12/12 09:12:55;;;;;;;38.28;20.88;;;;;;;-4.95;100.00;101378.63;5095723;28;20028;-78
2022/12/12 09:15:21;;;;;;;51.50;22.95;;;;;;;-4.84;100.00;101383.63;5076984;28;20024;-78
2022/12/12 09:17:46;;;;;;;49.53;21.65;;;;;;;-4.73;100.00;101383.44;5094867;28;20032;-75
2022/12/12 09:20:12;;;;;;;47.60;19.70;;;;;;;-4.64;100.00;101384.13;5094780;28;20028;-75
2022/12/12 09:22:38;;;;;;;46.45;20.90;;;;;;;-4.51;100.00;101383.88;5094930;28;20028;-75
2022/12/12 09:25:05;;;;;;;47.53;20.85;;;;;;;-4.37;100.00;101388.81;5095210;28;20114;-77
2022/12/12 09:27:30;;;;;;;43.33;19.73;;;;;;;-4.23;100.00;101386.81;5095367;28;20024;-76
2022/12/12 09:29:56;;;;;;;45.05;20.00;;;;;;;-4.12;100.00;101379.66;5095195;28;20031;-75
2022/12/12 09:32:21;;;;;;;39.80;19.35;;;;;;;-4.01;100.00;101387.22;5094907;28;20472;-75
2022/12/12 09:34:47;;;;;;;38.30;20.10;;;;;;;-3.87;100.00;101386.06;5095004;28;20360;-76
2022/12/12 09:37:12;;;;;;;49.67;20.13;;;;;;;-3.77;100.00;101392.78;5095555;28;20383;-75
2022/12/12 09:39:38;;;;;;;42.28;19.60;;;;;;;-3.68;100.00;101389.13;5095440;28;20028;-76
2022/12/12 09:42:18;;;;;;;55.35;22.85;;;;;;;-3.61;100.00;101383.75;5094672;28;20070;-76
2022/12/12 09:44:44;;;;;;;50.13;21.88;;;;;;;-3.58;100.00;101383.66;5095236;28;20475;-76
2022/12/12 09:47:19;;;;;;;56.25;23.88;;;;;;;-3.57;100.00;101388.00;5094762;28;20062;-77
2022/12/12 09:49:46;;;;;;;54.15;22.73;;;;;;;-3.52;100.00;101389.59;5095269;28;20444;-76
2022/12/12 09:52:15;;;;;;;56.20;23.67;;;;;;;-3.50;100.00;101383.50;5094746;28;20100;-78
2022/12/12 09:54:40;;;;;;;51.38;22.95;;;;;;;-3.46;100.00;101386.88;5076391;28;20048;-77
2022/12/12 09:57:11;;;;;;;56.75;24.35;;;;;;;-3.48;100.00;101386.91;5094589;28;20039;-77
2022/12/12 09:59:54;;;;;;;58.15;24.10;;;;;;;-3.46;100.00;101381.66;5095004;28;20052;-78
2022/12/12 10:02:41;;;;;;;53.00;25.00;;;;;;;-3.42;100.00;101386.78;5094569;28;20073;-77
2022/12/12 10:05:18;;;;;;;65.53;26.70;;;;;;;-3.40;100.00;101389.34;5094823;28;20024;-78
2022/12/12 10:08:22;;;;;;;55.72;25.60;;;;;;;-3.32;100.00;101390.00;5094052;28;20027;-75
2022/12/12 10:10:52;;;;;;;71.05;27.50;;;;;;;-3.29;100.00;101384.72;5094993;28;20052;-76
2022/12/12 10:13:22;;;;;;;62.85;27.00;;;;;;;-3.25;100.00;101381.16;5094588;28;20035;-76
2022/12/12 10:15:52;;;;;;;63.35;26.95;;;;;;;-3.18;100.00;101381.84;5094299;28;20169;-78
2022/12/12 10:18:25;;;;;;;60.95;27.73;;;;;;;-3.10;100.00;101386.91;5095134;28;20020;-76
2022/12/12 10:20:55;;;;;;;64.95;27.20;;;;;;;-3.06;100.00;101381.56;5094307;28;20032;-75
2022/12/12 10:23:38;;;;;;;55.90;25.63;;;;;;;-3.07;100.00;101373.78;5076012;28;20031;-75
2022/12/12 10:26:14;;;;;;;51.85;24.50;;;;;;;-3.00;100.00;101375.34;5094356;28;20024;-75
2022/12/12 10:28:39;;;;;;;61.22;25.45;;;;;;;-2.89;100.00;101372.47;5094070;28;20448;-75
2022/12/12 10:31:39;;;;;;;60.80;25.15;;;;;;;-2.74;100.00;101374.66;5093961;28;20031;-74
2022/12/12 10:34:22;;;;;;;51.10;24.75;;;;;;;-2.62;100.00;101370.03;5093941;28;20115;-74
2022/12/12 10:37:19;;;;;;;60.45;24.33;;;;;;;-2.67;100.00;101371.00;5094145;28;20505;-74
2022/12/12 10:40:12;;;;;;;49.22;23.30;;;;;;;-2.76;100.00;101367.78;5094031;28;20360;-73
2022/12/12 10:42:59;;;;;;;50.15;23.27;;;;;;;-2.76;100.00;101371.25;5094364;28;20048;-73
2022/12/12 10:46:02;;;;;;;43.88;22.20;;;;;;;-2.72;100.00;101364.19;5094324;28;20028;-74
2022/12/12 10:48:28;;;;;;;50.03;22.40;;;;;;;-2.66;100.00;101366.63;5093569;28;20042;-76
2022/12/12 10:51:02;;;;;;;48.33;22.95;;;;;;;-2.54;100.00;101358.50;5093525;28;20444;-76
2022/12/12 10:53:29;;;;;;;47.40;22.33;;;;;;;-2.38;100.00;101364.13;5093612;28;20436;-76
2022/12/12 10:56:08;;;;;;;50.65;23.02;;;;;;;-2.31;100.00;101362.22;5094028;28;20179;-77
2022/12/12 10:58:42;;;;;;;46.20;22.25;;;;;;;-2.24;100.00;101357.66;5093348;28;20110;-76
2022/12/12 11:01:20;;;;;;;45.75;21.48;;;;;;;-2.17;100.00;101361.81;5093050;28;20024;-75
2022/12/12 11:03:50;;;;;;;43.20;21.40;;;;;;;-2.16;100.00;101358.31;5093242;28;20457;-76
2022/12/12 11:06:25;;;;;;;43.45;21.27;;;;;;;-2.02;100.00;101361.34;5093167;28;20051;-76
2022/12/12 11:08:53;;;;;;;43.78;20.75;;;;;;;-2.02;100.00;101363.13;5093279;28;20028;-76
2022/12/12 11:11:23;;;;;;;40.20;20.95;;;;;;;-1.98;100.00;101356.91;5093127;28;20024;-76
2022/12/12 11:13:56;;;;;;;43.15;21.60;;;;;;;-1.98;100.00;101351.69;5093797;28;20108;-75
2022/12/12 11:16:27;;;;;;;31.65;17.95;;;;;;;-2.08;100.00;101352.88;5093347;28;20059;-77
2022/12/12 11:19:26;;;;;;;39.72;20.33;;;;;;;-2.09;100.00;101346.81;5092850;28;20028;-74
2022/12/12 11:21:53;;;;;;;41.22;20.25;;;;;;;-1.94;100.00;101345.50;5038192;28;20108;-74
2022/12/12 11:24:21;;;;;;;33.58;18.30;;;;;;;-1.70;100.00;101343.00;5093321;28;20028;-76
2022/12/12 11:27:06;;;;;;;35.15;18.02;;;;;;;-1.38;100.00;101356.81;5093007;28;20028;-76
2022/12/12 11:29:45;;;;;;;36.17;18.75;;;;;;;-1.12;100.00;101350.72;5074725;28;20464;-73
2022/12/12 11:32:25;;;;;;;40.00;17.27;;;;;;;-0.86;100.00;101349.84;5074933;28;20059;-77
2022/12/12 11:34:54;;;;;;;34.25;17.52;;;;;;;-0.76;100.00;101353.84;5075412;28;20361;-73